sensor_id;sensor_type;location;lat;lon;timestamp;temperature;humidity
53294;DHT22;39181;53.440;5.644;2023-12-20T00:00:56;7.00;99.90
53294;DHT22;39181;53.440;5.644;2023-12-20T00:03:22;6.90;99.90
53294;DHT22;39181;53.440;5.644;2023-12-20T00:05:47;7.40;99.90
53294;DHT22;39181;53.440;5.644;2023-12-20T00:08:13;7.40;99.90
53294;DHT22;39181;53.440;5.644;2023-12-20T00:10:39;7.30;99.90
53294;DHT22;39181;53.440;5.644;2023-12-20T00:13:04;7.50;99.90
53294;DHT22;39181;53.440;5.644;2023-12-20T00:15:30;7.30;99.90
53294;DHT22;39181;53.440;5.644;2023-12-20T00:17:55;7.30;99.90
53294;DHT22;39181;53.440;5.644;2023-12-20T00:20:21;7.60;99.90
53294;DHT22;39181;53.440;5.644;2023-12-20T00:22:46;7.40;99.90
53294;DHT22;39181;53.440;5.644;2023-12-20T00:25:12;7.40;99.90
53294;DHT22;39181;53.440;5.644;2023-12-20T00:27:38;7.50;99.90
53294;DHT22;39181;53.440;5.644;2023-12-20T00:30:04;7.60;99.90
53294;DHT22;39181;53.440;5.644;2023-12-20T00:32:29;7.70;99.90
53294;DHT22;39181;53.440;5.644;2023-12-20T00:34:55;7.70;99.90
53294;DHT22;39181;53.440;5.644;2023-12-20T00:37:21;7.40;99.90
53294;DHT22;39181;53.440;5.644;2023-12-20T00:39:46;7.50;99.90
53294;DHT22;39181;53.440;5.644;2023-12-20T00:42:12;7.40;99.90
53294;DHT22;39181;53.440;5.644;2023-12-20T00:44:37;7.60;99.90
53294;DHT22;39181;53.440;5.644;2023-12-20T00:47:03;7.50;99.90
53294;DHT22;39181;53.440;5.644;2023-12-20T00:49:28;7.60;99.90
53294;DHT22;39181;53.440;5.644;2023-12-20T00:51:54;7.70;99.90
53294;DHT22;39181;53.440;5.644;2023-12-20T00:54:20;7.50;99.90
53294;DHT22;39181;53.440;5.644;2023-12-20T00:56:45;7.70;99.90
53294;DHT22;39181;53.440;5.644;2023-12-20T00:59:11;7.70;99.90
53294;DHT22;39181;53.440;5.644;2023-12-20T01:01:36;7.80;99.90
53294;DHT22;39181;53.440;5.644;2023-12-20T01:04:02;7.80;99.90
53294;DHT22;39181;53.440;5.644;2023-12-20T01:06:28;7.60;99.90
53294;DHT22;39181;53.440;5.644;2023-12-20T01:08:53;7.50;99.90
53294;DHT22;39181;53.440;5.644;2023-12-20T01:11:19;7.60;99.90
53294;DHT22;39181;53.440;5.644;2023-12-20T01:13:44;7.50;99.90
53294;DHT22;39181;53.440;5.644;2023-12-20T01:16:10;7.70;99.90
53294;DHT22;39181;53.440;5.644;2023-12-20T01:18:36;7.60;99.90
53294;DHT22;39181;53.440;5.644;2023-12-20T01:21:02;7.80;99.90
53294;DHT22;39181;53.440;5.644;2023-12-20T01:23:28;7.80;99.90
53294;DHT22;39181;53.440;5.644;2023-12-20T01:25:54;7.70;99.90
53294;DHT22;39181;53.440;5.644;2023-12-20T01:28:20;7.70;99.90
53294;DHT22;39181;53.440;5.644;2023-12-20T01:30:46;7.80;99.90
53294;DHT22;39181;53.440;5.644;2023-12-20T01:33:11;7.60;99.90
53294;DHT22;39181;53.440;5.644;2023-12-20T01:35:37;7.60;99.90
53294;DHT22;39181;53.440;5.644;2023-12-20T01:38:03;7.60;99.90
53294;DHT22;39181;53.440;5.644;2023-12-20T01:40:28;7.70;99.90
53294;DHT22;39181;53.440;5.644;2023-12-20T01:43:07;7.70;99.90
53294;DHT22;39181;53.440;5.644;2023-12-20T01:45:37;7.60;99.90
53294;DHT22;39181;53.440;5.644;2023-12-20T01:48:05;7.80;99.90
53294;DHT22;39181;53.440;5.644;2023-12-20T01:50:31;7.70;99.90
53294;DHT22;39181;53.440;5.644;2023-12-20T01:52:59;7.70;99.90
53294;DHT22;39181;53.440;5.644;2023-12-20T01:55:27;7.80;99.90
53294;DHT22;39181;53.440;5.644;2023-12-20T01:57:53;7.80;99.90
53294;DHT22;39181;53.440;5.644;2023-12-20T02:00:19;7.70;99.90
53294;DHT22;39181;53.440;5.644;2023-12-20T02:02:48;7.80;99.90
53294;DHT22;39181;53.440;5.644;2023-12-20T02:05:15;7.80;99.90
53294;DHT22;39181;53.440;5.644;2023-12-20T02:07:41;7.70;99.90
53294;DHT22;39181;53.440;5.644;2023-12-20T02:10:07;7.70;99.90
53294;DHT22;39181;53.440;5.644;2023-12-20T02:12:33;7.60;99.90
53294;DHT22;39181;53.440;5.644;2023-12-20T02:14:58;7.80;99.90
53294;DHT22;39181;53.440;5.644;2023-12-20T02:17:25;7.80;99.90
53294;DHT22;39181;53.440;5.644;2023-12-20T02:19:50;7.70;99.90
53294;DHT22;39181;53.440;5.644;2023-12-20T02:22:16;7.70;99.90
53294;DHT22;39181;53.440;5.644;2023-12-20T02:24:41;7.60;99.90
53294;DHT22;39181;53.440;5.644;2023-12-20T02:27:07;7.70;99.90
53294;DHT22;39181;53.440;5.644;2023-12-20T02:29:34;7.80;99.90
53294;DHT22;39181;53.440;5.644;2023-12-20T02:32:00;7.90;99.90
53294;DHT22;39181;53.440;5.644;2023-12-20T02:34:25;7.60;99.90
53294;DHT22;39181;53.440;5.644;2023-12-20T02:36:51;7.40;99.90
53294;DHT22;39181;53.440;5.644;2023-12-20T02:39:18;7.40;99.90
53294;DHT22;39181;53.440;5.644;2023-12-20T02:41:44;7.30;99.90
53294;DHT22;39181;53.440;5.644;2023-12-20T02:44:10;7.50;99.90
53294;DHT22;39181;53.440;5.644;2023-12-20T02:46:35;7.50;99.90
53294;DHT22;39181;53.440;5.644;2023-12-20T02:49:01;7.50;99.90
53294;DHT22;39181;53.440;5.644;2023-12-20T02:51:26;7.50;99.90
53294;DHT22;39181;53.440;5.644;2023-12-20T02:53:52;7.50;99.90
53294;DHT22;39181;53.440;5.644;2023-12-20T02:56:17;7.80;99.90
53294;DHT22;39181;53.440;5.644;2023-12-20T02:58:43;7.60;99.90
53294;DHT22;39181;53.440;5.644;2023-12-20T03:01:08;7.80;99.90
53294;DHT22;39181;53.440;5.644;2023-12-20T03:03:34;7.90;99.90
53294;DHT22;39181;53.440;5.644;2023-12-20T03:06:00;7.90;99.90
53294;DHT22;39181;53.440;5.644;2023-12-20T03:08:25;7.70;99.90
53294;DHT22;39181;53.440;5.644;2023-12-20T03:10:51;7.70;99.90
53294;DHT22;39181;53.440;5.644;2023-12-20T03:13:17;7.70;99.90
53294;DHT22;39181;53.440;5.644;2023-12-20T03:15:42;7.70;99.90
53294;DHT22;39181;53.440;5.644;2023-12-20T03:18:08;7.70;99.90
53294;DHT22;39181;53.440;5.644;2023-12-20T03:20:33;7.80;99.90
53294;DHT22;39181;53.440;5.644;2023-12-20T03:23:03;7.60;99.90
53294;DHT22;39181;53.440;5.644;2023-12-20T03:25:28;7.90;99.90
53294;DHT22;39181;53.440;5.644;2023-12-20T03:27:54;7.80;99.90
53294;DHT22;39181;53.440;5.644;2023-12-20T03:30:20;7.60;99.90
53294;DHT22;39181;53.440;5.644;2023-12-20T03:32:46;7.80;99.90
53294;DHT22;39181;53.440;5.644;2023-12-20T03:35:12;7.70;99.90
53294;DHT22;39181;53.440;5.644;2023-12-20T03:37:38;7.70;99.90
53294;DHT22;39181;53.440;5.644;2023-12-20T03:40:04;7.90;99.90
53294;DHT22;39181;53.440;5.644;2023-12-20T03:42:29;7.80;99.90
53294;DHT22;39181;53.440;5.644;2023-12-20T03:44:55;7.90;99.90
53294;DHT22;39181;53.440;5.644;2023-12-20T03:47:20;7.70;99.90
53294;DHT22;39181;53.440;5.644;2023-12-20T03:49:46;7.90;99.90
53294;DHT22;39181;53.440;5.644;2023-12-20T03:52:12;7.90;99.90
53294;DHT22;39181;53.440;5.644;2023-12-20T03:54:37;7.70;99.90
53294;DHT22;39181;53.440;5.644;2023-12-20T03:57:03;7.80;99.90
53294;DHT22;39181;53.440;5.644;2023-12-20T03:59:29;7.90;99.90
53294;DHT22;39181;53.440;5.644;2023-12-20T04:01:55;7.90;99.90
53294;DHT22;39181;53.440;5.644;2023-12-20T04:04:20;7.80;99.90
53294;DHT22;39181;53.440;5.644;2023-12-20T04:06:46;7.90;99.90
53294;DHT22;39181;53.440;5.644;2023-12-20T04:09:11;8.70;99.90
53294;DHT22;39181;53.440;5.644;2023-12-20T04:11:37;7.90;99.90
53294;DHT22;39181;53.440;5.644;2023-12-20T04:14:03;7.90;99.90
53294;DHT22;39181;53.440;5.644;2023-12-20T04:16:30;7.90;99.90
53294;DHT22;39181;53.440;5.644;2023-12-20T04:18:56;7.90;99.90
53294;DHT22;39181;53.440;5.644;2023-12-20T04:21:21;8.00;99.90
53294;DHT22;39181;53.440;5.644;2023-12-20T04:23:47;7.90;99.90
53294;DHT22;39181;53.440;5.644;2023-12-20T04:26:12;7.80;99.90
53294;DHT22;39181;53.440;5.644;2023-12-20T04:28:38;7.80;99.90
53294;DHT22;39181;53.440;5.644;2023-12-20T04:31:03;7.90;99.90
53294;DHT22;39181;53.440;5.644;2023-12-20T04:33:29;7.90;99.90
53294;DHT22;39181;53.440;5.644;2023-12-20T04:35:55;7.80;99.90
53294;DHT22;39181;53.440;5.644;2023-12-20T04:38:20;8.00;99.90
53294;DHT22;39181;53.440;5.644;2023-12-20T04:40:46;8.00;99.90
53294;DHT22;39181;53.440;5.644;2023-12-20T04:43:11;8.00;99.90
53294;DHT22;39181;53.440;5.644;2023-12-20T04:45:37;7.90;99.90
53294;DHT22;39181;53.440;5.644;2023-12-20T04:48:03;8.00;99.90
53294;DHT22;39181;53.440;5.644;2023-12-20T04:50:29;8.20;99.90
53294;DHT22;39181;53.440;5.644;2023-12-20T04:52:55;8.20;99.90
53294;DHT22;39181;53.440;5.644;2023-12-20T04:55:20;8.20;99.90
53294;DHT22;39181;53.440;5.644;2023-12-20T04:57:46;8.20;99.90
53294;DHT22;39181;53.440;5.644;2023-12-20T05:00:12;8.20;99.90
53294;DHT22;39181;53.440;5.644;2023-12-20T05:02:37;8.20;99.90
53294;DHT22;39181;53.440;5.644;2023-12-20T05:05:03;8.20;99.90
53294;DHT22;39181;53.440;5.644;2023-12-20T05:07:29;8.20;99.90
53294;DHT22;39181;53.440;5.644;2023-12-20T05:09:54;8.30;99.90
53294;DHT22;39181;53.440;5.644;2023-12-20T05:12:20;8.30;99.90
53294;DHT22;39181;53.440;5.644;2023-12-20T05:14:46;8.20;99.90
53294;DHT22;39181;53.440;5.644;2023-12-20T05:17:11;8.10;99.90
53294;DHT22;39181;53.440;5.644;2023-12-20T05:19:37;8.10;99.90
53294;DHT22;39181;53.440;5.644;2023-12-20T05:22:03;8.30;99.90
53294;DHT22;39181;53.440;5.644;2023-12-20T05:24:29;8.20;99.90
53294;DHT22;39181;53.440;5.644;2023-12-20T05:26:54;8.30;99.90
53294;DHT22;39181;53.440;5.644;2023-12-20T05:29:20;8.40;99.90
53294;DHT22;39181;53.440;5.644;2023-12-20T05:31:46;8.30;99.90
53294;DHT22;39181;53.440;5.644;2023-12-20T05:34:11;8.30;99.90
53294;DHT22;39181;53.440;5.644;2023-12-20T05:36:37;8.20;99.90
53294;DHT22;39181;53.440;5.644;2023-12-20T05:39:03;8.20;99.90
53294;DHT22;39181;53.440;5.644;2023-12-20T05:41:30;8.30;99.90
53294;DHT22;39181;53.440;5.644;2023-12-20T05:43:56;8.20;99.90
53294;DHT22;39181;53.440;5.644;2023-12-20T05:46:23;8.40;99.90
53294;DHT22;39181;53.440;5.644;2023-12-20T05:48:49;8.20;99.90
53294;DHT22;39181;53.440;5.644;2023-12-20T05:51:15;8.20;99.90
53294;DHT22;39181;53.440;5.644;2023-12-20T05:53:40;8.20;99.90
53294;DHT22;39181;53.440;5.644;2023-12-20T05:56:06;8.40;99.90
53294;DHT22;39181;53.440;5.644;2023-12-20T05:58:35;8.40;99.90
53294;DHT22;39181;53.440;5.644;2023-12-20T06:01:04;8.40;99.90
53294;DHT22;39181;53.440;5.644;2023-12-20T06:03:30;8.40;99.90
53294;DHT22;39181;53.440;5.644;2023-12-20T06:05:56;8.40;99.90
53294;DHT22;39181;53.440;5.644;2023-12-20T06:08:21;8.50;99.90
53294;DHT22;39181;53.440;5.644;2023-12-20T06:10:47;8.40;99.90
53294;DHT22;39181;53.440;5.644;2023-12-20T06:13:15;8.40;99.90
53294;DHT22;39181;53.440;5.644;2023-12-20T06:15:41;8.50;99.90
53294;DHT22;39181;53.440;5.644;2023-12-20T06:18:06;8.40;99.90
53294;DHT22;39181;53.440;5.644;2023-12-20T06:20:35;8.40;99.90
53294;DHT22;39181;53.440;5.644;2023-12-20T06:23:01;8.40;99.90
53294;DHT22;39181;53.440;5.644;2023-12-20T06:25:26;8.50;99.90
53294;DHT22;39181;53.440;5.644;2023-12-20T06:27:52;8.50;99.90
53294;DHT22;39181;53.440;5.644;2023-12-20T06:30:17;8.30;99.90
53294;DHT22;39181;53.440;5.644;2023-12-20T06:32:43;8.30;99.90
53294;DHT22;39181;53.440;5.644;2023-12-20T06:35:09;8.40;99.90
53294;DHT22;39181;53.440;5.644;2023-12-20T06:37:39;8.30;99.90
53294;DHT22;39181;53.440;5.644;2023-12-20T06:40:09;8.50;99.90
53294;DHT22;39181;53.440;5.644;2023-12-20T06:42:35;8.30;99.90
53294;DHT22;39181;53.440;5.644;2023-12-20T06:45:00;8.40;99.90
53294;DHT22;39181;53.440;5.644;2023-12-20T06:47:26;8.40;99.90
53294;DHT22;39181;53.440;5.644;2023-12-20T06:49:52;8.30;99.90
53294;DHT22;39181;53.440;5.644;2023-12-20T06:52:17;8.30;99.90
53294;DHT22;39181;53.440;5.644;2023-12-20T06:54:43;8.30;99.90
53294;DHT22;39181;53.440;5.644;2023-12-20T06:57:08;8.10;99.90
53294;DHT22;39181;53.440;5.644;2023-12-20T06:59:39;8.20;99.90
53294;DHT22;39181;53.440;5.644;2023-12-20T07:02:05;8.20;99.90
53294;DHT22;39181;53.440;5.644;2023-12-20T07:04:31;8.20;99.90
53294;DHT22;39181;53.440;5.644;2023-12-20T07:06:56;8.20;99.90
53294;DHT22;39181;53.440;5.644;2023-12-20T07:09:26;8.20;99.90
53294;DHT22;39181;53.440;5.644;2023-12-20T07:11:51;8.20;99.90
53294;DHT22;39181;53.440;5.644;2023-12-20T07:14:17;8.40;99.90
53294;DHT22;39181;53.440;5.644;2023-12-20T07:16:43;8.30;99.90
53294;DHT22;39181;53.440;5.644;2023-12-20T07:19:08;8.20;99.90
53294;DHT22;39181;53.440;5.644;2023-12-20T07:21:34;8.10;99.90
53294;DHT22;39181;53.440;5.644;2023-12-20T07:23:59;8.20;99.90
53294;DHT22;39181;53.440;5.644;2023-12-20T07:26:25;8.20;99.90
53294;DHT22;39181;53.440;5.644;2023-12-20T07:28:50;8.30;99.90
53294;DHT22;39181;53.440;5.644;2023-12-20T07:31:16;8.20;99.90
53294;DHT22;39181;53.440;5.644;2023-12-20T07:33:42;8.20;99.90
53294;DHT22;39181;53.440;5.644;2023-12-20T07:36:07;8.30;99.90
53294;DHT22;39181;53.440;5.644;2023-12-20T07:38:33;8.20;99.90
53294;DHT22;39181;53.440;5.644;2023-12-20T07:40:59;8.10;99.90
53294;DHT22;39181;53.440;5.644;2023-12-20T07:43:25;8.30;99.90
53294;DHT22;39181;53.440;5.644;2023-12-20T07:45:50;8.20;99.90
53294;DHT22;39181;53.440;5.644;2023-12-20T07:48:16;8.40;99.90
53294;DHT22;39181;53.440;5.644;2023-12-20T07:50:41;8.30;99.90
53294;DHT22;39181;53.440;5.644;2023-12-20T07:53:07;8.40;99.90
53294;DHT22;39181;53.440;5.644;2023-12-20T07:55:33;8.30;99.90
53294;DHT22;39181;53.440;5.644;2023-12-20T07:58:00;8.40;99.90
53294;DHT22;39181;53.440;5.644;2023-12-20T08:00:25;8.20;99.90
53294;DHT22;39181;53.440;5.644;2023-12-20T08:02:51;8.30;99.90
53294;DHT22;39181;53.440;5.644;2023-12-20T08:05:17;8.30;99.90
53294;DHT22;39181;53.440;5.644;2023-12-20T08:07:42;8.40;99.90
53294;DHT22;39181;53.440;5.644;2023-12-20T08:10:08;8.40;99.90
53294;DHT22;39181;53.440;5.644;2023-12-20T08:12:34;8.40;99.90
53294;DHT22;39181;53.440;5.644;2023-12-20T08:15:00;8.10;99.90
53294;DHT22;39181;53.440;5.644;2023-12-20T08:17:26;7.80;99.90
53294;DHT22;39181;53.440;5.644;2023-12-20T08:19:52;7.80;99.90
53294;DHT22;39181;53.440;5.644;2023-12-20T08:22:17;7.60;99.90
53294;DHT22;39181;53.440;5.644;2023-12-20T08:24:43;7.40;99.90
53294;DHT22;39181;53.440;5.644;2023-12-20T08:27:08;7.30;99.90
53294;DHT22;39181;53.440;5.644;2023-12-20T08:29:35;7.10;99.90
53294;DHT22;39181;53.440;5.644;2023-12-20T08:32:01;7.30;99.90
53294;DHT22;39181;53.440;5.644;2023-12-20T08:34:26;6.90;99.90
53294;DHT22;39181;53.440;5.644;2023-12-20T08:36:52;6.80;99.90
53294;DHT22;39181;53.440;5.644;2023-12-20T08:39:18;6.70;99.90
53294;DHT22;39181;53.440;5.644;2023-12-20T08:41:43;6.70;99.90
53294;DHT22;39181;53.440;5.644;2023-12-20T08:44:09;6.50;99.90
53294;DHT22;39181;53.440;5.644;2023-12-20T08:46:35;6.50;99.90
53294;DHT22;39181;53.440;5.644;2023-12-20T08:49:01;6.70;99.90
53294;DHT22;39181;53.440;5.644;2023-12-20T08:51:27;6.50;99.90
53294;DHT22;39181;53.440;5.644;2023-12-20T08:53:53;6.30;99.90
53294;DHT22;39181;53.440;5.644;2023-12-20T08:56:19;6.30;99.90
53294;DHT22;39181;53.440;5.644;2023-12-20T08:58:46;6.30;99.90
53294;DHT22;39181;53.440;5.644;2023-12-20T09:01:12;6.40;99.90
53294;DHT22;39181;53.440;5.644;2023-12-20T09:03:39;6.60;99.90
53294;DHT22;39181;53.440;5.644;2023-12-20T09:06:04;6.70;99.90
53294;DHT22;39181;53.440;5.644;2023-12-20T09:08:30;7.00;99.90
53294;DHT22;39181;53.440;5.644;2023-12-20T09:10:56;7.00;99.90
53294;DHT22;39181;53.440;5.644;2023-12-20T09:13:22;6.90;99.90
53294;DHT22;39181;53.440;5.644;2023-12-20T09:15:52;7.00;99.90
53294;DHT22;39181;53.440;5.644;2023-12-20T09:18:17;6.80;99.90
53294;DHT22;39181;53.440;5.644;2023-12-20T09:20:43;7.00;99.90
53294;DHT22;39181;53.440;5.644;2023-12-20T09:23:09;6.80;99.90
53294;DHT22;39181;53.440;5.644;2023-12-20T09:25:34;7.10;99.90
53294;DHT22;39181;53.440;5.644;2023-12-20T09:28:00;7.00;99.90
53294;DHT22;39181;53.440;5.644;2023-12-20T09:30:25;7.00;99.90
53294;DHT22;39181;53.440;5.644;2023-12-20T09:32:51;7.00;99.90
53294;DHT22;39181;53.440;5.644;2023-12-20T09:35:17;7.10;99.90
53294;DHT22;39181;53.440;5.644;2023-12-20T09:37:42;7.20;99.90
53294;DHT22;39181;53.440;5.644;2023-12-20T09:40:12;7.40;99.90
53294;DHT22;39181;53.440;5.644;2023-12-20T09:45:14;7.30;99.90
53294;DHT22;39181;53.440;5.644;2023-12-20T09:47:40;7.40;99.90
53294;DHT22;39181;53.440;5.644;2023-12-20T09:50:07;7.40;99.90
53294;DHT22;39181;53.440;5.644;2023-12-20T09:52:34;7.40;99.90
53294;DHT22;39181;53.440;5.644;2023-12-20T09:55:01;7.60;99.90
53294;DHT22;39181;53.440;5.644;2023-12-20T09:57:31;7.40;99.90
53294;DHT22;39181;53.440;5.644;2023-12-20T09:59:57;7.60;99.90
53294;DHT22;39181;53.440;5.644;2023-12-20T10:02:25;7.60;99.90
53294;DHT22;39181;53.440;5.644;2023-12-20T10:04:53;7.40;99.90
53294;DHT22;39181;53.440;5.644;2023-12-20T10:07:19;7.50;99.90
53294;DHT22;39181;53.440;5.644;2023-12-20T10:09:45;7.40;99.90
53294;DHT22;39181;53.440;5.644;2023-12-20T10:12:12;7.40;99.90
53294;DHT22;39181;53.440;5.644;2023-12-20T10:14:39;7.50;99.90
53294;DHT22;39181;53.440;5.644;2023-12-20T10:17:05;7.40;99.90
53294;DHT22;39181;53.440;5.644;2023-12-20T10:19:31;7.40;99.90
53294;DHT22;39181;53.440;5.644;2023-12-20T10:22:00;7.40;99.90
53294;DHT22;39181;53.440;5.644;2023-12-20T10:24:28;7.60;99.90
53294;DHT22;39181;53.440;5.644;2023-12-20T10:27:02;7.60;99.90
53294;DHT22;39181;53.440;5.644;2023-12-20T10:29:35;7.60;99.90
53294;DHT22;39181;53.440;5.644;2023-12-20T10:32:27;7.50;99.90
53294;DHT22;39181;53.440;5.644;2023-12-20T10:34:54;7.50;99.90
53294;DHT22;39181;53.440;5.644;2023-12-20T10:37:20;7.50;99.90
53294;DHT22;39181;53.440;5.644;2023-12-20T10:39:50;7.60;99.90
53294;DHT22;39181;53.440;5.644;2023-12-20T10:42:19;7.50;99.90
53294;DHT22;39181;53.440;5.644;2023-12-20T10:44:46;7.50;99.90
53294;DHT22;39181;53.440;5.644;2023-12-20T10:47:13;7.60;99.90
53294;DHT22;39181;53.440;5.644;2023-12-20T10:49:39;7.80;99.90
53294;DHT22;39181;53.440;5.644;2023-12-20T10:52:06;7.90;99.90
53294;DHT22;39181;53.440;5.644;2023-12-20T10:54:33;8.00;99.90
53294;DHT22;39181;53.440;5.644;2023-12-20T10:56:59;8.00;99.90
53294;DHT22;39181;53.440;5.644;2023-12-20T10:59:27;8.10;99.90
53294;DHT22;39181;53.440;5.644;2023-12-20T11:01:55;8.20;99.90
53294;DHT22;39181;53.440;5.644;2023-12-20T11:04:28;8.10;99.90
53294;DHT22;39181;53.440;5.644;2023-12-20T11:07:03;8.20;99.90
53294;DHT22;39181;53.440;5.644;2023-12-20T11:09:38;8.00;99.90
53294;DHT22;39181;53.440;5.644;2023-12-20T11:12:25;8.00;99.90
53294;DHT22;39181;53.440;5.644;2023-12-20T11:14:54;8.10;99.90
53294;DHT22;39181;53.440;5.644;2023-12-20T11:17:28;8.10;99.90
53294;DHT22;39181;53.440;5.644;2023-12-20T11:22:26;8.00;99.90
53294;DHT22;39181;53.440;5.644;2023-12-20T11:24:52;8.00;99.90
53294;DHT22;39181;53.440;5.644;2023-12-20T11:27:19;7.90;99.90
53294;DHT22;39181;53.440;5.644;2023-12-20T11:29:52;8.00;99.90
53294;DHT22;39181;53.440;5.644;2023-12-20T11:35:00;8.20;99.90
53294;DHT22;39181;53.440;5.644;2023-12-20T11:37:30;8.20;99.90
53294;DHT22;39181;53.440;5.644;2023-12-20T11:40:06;8.10;99.90
53294;DHT22;39181;53.440;5.644;2023-12-20T11:42:42;8.10;99.90
53294;DHT22;39181;53.440;5.644;2023-12-20T11:45:14;8.20;99.90
53294;DHT22;39181;53.440;5.644;2023-12-20T11:47:43;8.10;99.90
53294;DHT22;39181;53.440;5.644;2023-12-20T11:50:09;8.10;99.90
53294;DHT22;39181;53.440;5.644;2023-12-20T11:52:35;8.30;99.90
53294;DHT22;39181;53.440;5.644;2023-12-20T11:55:00;8.20;99.90
53294;DHT22;39181;53.440;5.644;2023-12-20T11:57:26;8.20;99.90
53294;DHT22;39181;53.440;5.644;2023-12-20T11:59:52;8.20;99.90
53294;DHT22;39181;53.440;5.644;2023-12-20T12:02:17;8.30;99.90
53294;DHT22;39181;53.440;5.644;2023-12-20T12:04:43;8.40;99.90
53294;DHT22;39181;53.440;5.644;2023-12-20T12:07:08;8.40;99.90
53294;DHT22;39181;53.440;5.644;2023-12-20T12:09:34;8.40;99.90
53294;DHT22;39181;53.440;5.644;2023-12-20T12:12:00;8.40;99.90
53294;DHT22;39181;53.440;5.644;2023-12-20T12:14:26;8.40;99.90
53294;DHT22;39181;53.440;5.644;2023-12-20T12:16:52;8.30;99.90
53294;DHT22;39181;53.440;5.644;2023-12-20T12:19:26;8.30;99.90
53294;DHT22;39181;53.440;5.644;2023-12-20T12:22:13;8.20;99.90
53294;DHT22;39181;53.440;5.644;2023-12-20T12:24:43;8.10;99.90
53294;DHT22;39181;53.440;5.644;2023-12-20T12:27:09;8.10;99.90
53294;DHT22;39181;53.440;5.644;2023-12-20T12:29:36;8.10;99.90
53294;DHT22;39181;53.440;5.644;2023-12-20T12:32:05;8.10;99.90
53294;DHT22;39181;53.440;5.644;2023-12-20T12:34:31;8.00;99.90
53294;DHT22;39181;53.440;5.644;2023-12-20T12:36:57;8.10;99.90
53294;DHT22;39181;53.440;5.644;2023-12-20T12:39:23;8.20;99.90
53294;DHT22;39181;53.440;5.644;2023-12-20T12:41:50;8.20;99.90
53294;DHT22;39181;53.440;5.644;2023-12-20T12:44:16;8.40;99.90
53294;DHT22;39181;53.440;5.644;2023-12-20T12:46:43;8.30;99.90
53294;DHT22;39181;53.440;5.644;2023-12-20T12:49:09;8.30;99.90
53294;DHT22;39181;53.440;5.644;2023-12-20T12:51:34;8.40;99.90
53294;DHT22;39181;53.440;5.644;2023-12-20T12:54:00;8.40;99.90
53294;DHT22;39181;53.440;5.644;2023-12-20T12:56:26;8.30;99.90
53294;DHT22;39181;53.440;5.644;2023-12-20T12:58:51;8.20;99.90
53294;DHT22;39181;53.440;5.644;2023-12-20T13:01:17;8.10;99.90
53294;DHT22;39181;53.440;5.644;2023-12-20T13:03:43;8.20;99.90
53294;DHT22;39181;53.440;5.644;2023-12-20T13:06:08;8.10;99.90
53294;DHT22;39181;53.440;5.644;2023-12-20T13:08:34;8.00;99.90
53294;DHT22;39181;53.440;5.644;2023-12-20T13:11:00;8.00;99.90
53294;DHT22;39181;53.440;5.644;2023-12-20T13:13:27;8.10;99.90
53294;DHT22;39181;53.440;5.644;2023-12-20T13:15:52;8.00;99.90
53294;DHT22;39181;53.440;5.644;2023-12-20T13:18:20;8.10;99.90
53294;DHT22;39181;53.440;5.644;2023-12-20T13:20:46;8.10;99.90
53294;DHT22;39181;53.440;5.644;2023-12-20T13:23:12;8.10;99.90
53294;DHT22;39181;53.440;5.644;2023-12-20T13:25:37;7.90;99.90
53294;DHT22;39181;53.440;5.644;2023-12-20T13:28:03;7.90;99.90
53294;DHT22;39181;53.440;5.644;2023-12-20T13:30:29;8.00;99.90
53294;DHT22;39181;53.440;5.644;2023-12-20T13:32:55;7.80;99.90
53294;DHT22;39181;53.440;5.644;2023-12-20T13:35:20;8.10;99.90
53294;DHT22;39181;53.440;5.644;2023-12-20T13:37:46;7.90;99.90
53294;DHT22;39181;53.440;5.644;2023-12-20T13:40:12;8.00;99.90
53294;DHT22;39181;53.440;5.644;2023-12-20T13:42:39;8.10;99.90
53294;DHT22;39181;53.440;5.644;2023-12-20T13:45:05;7.70;99.90
53294;DHT22;39181;53.440;5.644;2023-12-20T13:47:32;7.60;99.90
53294;DHT22;39181;53.440;5.644;2023-12-20T13:49:57;7.50;99.90
53294;DHT22;39181;53.440;5.644;2023-12-20T13:52:23;7.50;99.90
53294;DHT22;39181;53.440;5.644;2023-12-20T13:54:49;7.40;99.90
53294;DHT22;39181;53.440;5.644;2023-12-20T13:57:14;7.20;99.90
53294;DHT22;39181;53.440;5.644;2023-12-20T13:59:40;7.30;99.90
53294;DHT22;39181;53.440;5.644;2023-12-20T14:02:05;7.50;99.90
53294;DHT22;39181;53.440;5.644;2023-12-20T14:04:31;7.50;99.90
53294;DHT22;39181;53.440;5.644;2023-12-20T14:06:57;7.40;99.90
53294;DHT22;39181;53.440;5.644;2023-12-20T14:09:23;7.50;99.90
53294;DHT22;39181;53.440;5.644;2023-12-20T14:11:49;7.60;99.90
53294;DHT22;39181;53.440;5.644;2023-12-20T14:14:14;7.60;99.90
53294;DHT22;39181;53.440;5.644;2023-12-20T14:16:40;7.40;99.90
53294;DHT22;39181;53.440;5.644;2023-12-20T14:19:05;7.60;99.90
53294;DHT22;39181;53.440;5.644;2023-12-20T14:21:34;7.40;99.90
53294;DHT22;39181;53.440;5.644;2023-12-20T14:24:00;7.40;99.90
53294;DHT22;39181;53.440;5.644;2023-12-20T14:26:26;7.50;99.90
53294;DHT22;39181;53.440;5.644;2023-12-20T14:28:53;7.40;99.90
53294;DHT22;39181;53.440;5.644;2023-12-20T14:31:19;7.40;99.90
53294;DHT22;39181;53.440;5.644;2023-12-20T14:33:44;7.50;99.90
53294;DHT22;39181;53.440;5.644;2023-12-20T14:36:11;7.50;99.90
53294;DHT22;39181;53.440;5.644;2023-12-20T14:38:37;7.60;99.90
53294;DHT22;39181;53.440;5.644;2023-12-20T14:41:03;7.50;99.90
53294;DHT22;39181;53.440;5.644;2023-12-20T14:43:29;7.50;99.90
53294;DHT22;39181;53.440;5.644;2023-12-20T14:45:55;7.50;99.90
53294;DHT22;39181;53.440;5.644;2023-12-20T14:48:20;7.60;99.90
53294;DHT22;39181;53.440;5.644;2023-12-20T14:50:46;7.60;99.90
53294;DHT22;39181;53.440;5.644;2023-12-20T14:53:14;7.80;99.90
53294;DHT22;39181;53.440;5.644;2023-12-20T14:55:42;7.90;99.90
53294;DHT22;39181;53.440;5.644;2023-12-20T14:58:07;7.80;99.90
53294;DHT22;39181;53.440;5.644;2023-12-20T15:00:33;7.50;99.90
53294;DHT22;39181;53.440;5.644;2023-12-20T15:02:59;7.50;99.90
53294;DHT22;39181;53.440;5.644;2023-12-20T15:05:25;7.60;99.90
53294;DHT22;39181;53.440;5.644;2023-12-20T15:07:52;7.80;99.90
53294;DHT22;39181;53.440;5.644;2023-12-20T15:10:18;7.50;99.90
53294;DHT22;39181;53.440;5.644;2023-12-20T15:12:44;7.80;99.90
53294;DHT22;39181;53.440;5.644;2023-12-20T15:15:10;7.80;99.90
53294;DHT22;39181;53.440;5.644;2023-12-20T15:17:36;7.70;99.90
53294;DHT22;39181;53.440;5.644;2023-12-20T15:20:02;8.00;99.90
53294;DHT22;39181;53.440;5.644;2023-12-20T15:22:29;7.90;99.90
53294;DHT22;39181;53.440;5.644;2023-12-20T15:24:55;7.70;99.90
53294;DHT22;39181;53.440;5.644;2023-12-20T15:27:21;7.80;99.90
53294;DHT22;39181;53.440;5.644;2023-12-20T15:29:46;7.90;99.90
53294;DHT22;39181;53.440;5.644;2023-12-20T15:32:12;7.80;99.90
53294;DHT22;39181;53.440;5.644;2023-12-20T15:34:38;7.80;99.90
53294;DHT22;39181;53.440;5.644;2023-12-20T15:37:03;7.70;99.90
53294;DHT22;39181;53.440;5.644;2023-12-20T15:39:29;7.70;99.90
53294;DHT22;39181;53.440;5.644;2023-12-20T15:41:55;7.80;99.90
53294;DHT22;39181;53.440;5.644;2023-12-20T15:44:20;7.70;99.90
53294;DHT22;39181;53.440;5.644;2023-12-20T15:46:46;7.70;99.90